Redgranite, Wisconsin
Current Conditions -  °F | °C
As of 9:56 PM on Wednesday 17 Dec 2014 (Local Time) from KY50 Reporting Station
Overcast Overcast  
Wind Chill: -12°   Ceiling: 2200
Heat Index: -7°   Visibility: 10mi
Dew Point: -10°   Wind: 8mph
Humidity: 77%   Direction: 270°W
Pressure: 30.28"   Gusts: NA
Location:  44.04°N, 89.1°W
Report Text: KY50 180356Z AUTO 27007KT 10SM OVC022 M07/M10 A3028 RMK AO2 TSNO T10661100 SLP263
Loading
Personal Weather Stations






























Interactive Weather Map New forecast layout! Learn more

10-Day Weather Forecast

Advertisements
Track Severe Weather on mobile